Terminal Aerodrome Forecast
Issued by NWS

Home | Current Version | Previous Version | Text Only | Print | Product List | Glossary On
Versions: 1 2 3 4 5 6 7 8 9 10 11 12 13 14 15 16 17 18 19 20
000
FTUS46 KMTR 052300
TAFSTS
TAF
KSTS 052338Z 0600/0624 16010KT P6SM SKC
     FM060300 16005KT P6SM SKC
     FM060600 00000KT P6SM SKC
      TEMPO 0612/0616 1/4SM FG OVC002
     FM062100 19010KT P6SM SKC=

USA.gov is the U.S. government's official web portal to all federal, state and local government web resources and services.